createdAt,value
2022-09-28T00:01:23.507Z,4.30
2022-09-28T00:03:54.468Z,4.70
2022-09-28T00:06:24.554Z,4.60
2022-09-28T00:08:52.932Z,4.90
2022-09-28T00:11:22.856Z,4.70
2022-09-28T00:13:53.403Z,5.00
2022-09-28T00:16:24.507Z,5.10
2022-09-28T00:18:54.233Z,4.50
2022-09-28T00:21:24.597Z,3.90
2022-09-28T00:24:13.163Z,3.30
2022-09-28T00:26:47.145Z,3.70
2022-09-28T00:29:16.909Z,3.20
2022-09-28T00:31:45.619Z,2.90
2022-09-28T00:34:14.930Z,2.60
2022-09-28T00:36:47.595Z,2.60
2022-09-28T00:39:16.305Z,2.70
2022-09-28T00:41:45.410Z,2.60
2022-09-28T00:44:42.092Z,2.30
2022-09-28T00:47:25.745Z,2.30
2022-09-28T00:50:00.083Z,2.30
2022-09-28T00:52:41.258Z,2.20
2022-09-28T00:55:14.167Z,2.30
2022-09-28T00:57:47.635Z,2.20
2022-09-28T01:00:16.057Z,2.10
2022-09-28T01:02:45.729Z,2.30
2022-09-28T01:05:15.086Z,2.40
2022-09-28T01:07:45.059Z,2.40
2022-09-28T01:10:14.272Z,2.00
2022-09-28T01:12:42.223Z,2.20
2022-09-28T01:15:11.031Z,2.20
2022-09-28T01:18:07.377Z,2.40
2022-09-28T01:21:02.966Z,2.30
2022-09-28T01:23:44.187Z,2.40
2022-09-28T01:26:14.969Z,2.60
2022-09-28T01:31:17.997Z,2.80
2022-09-28T01:33:54.945Z,2.60
2022-09-28T01:36:39.828Z,2.70
2022-09-28T01:39:24.282Z,3.00
2022-09-28T01:41:55.848Z,3.00
2022-09-28T01:44:29.048Z,3.20
2022-09-28T01:47:03.746Z,2.70
2022-09-28T01:49:40.913Z,2.80
2022-09-28T01:52:33.466Z,3.50
2022-09-28T01:55:12.305Z,3.20
2022-09-28T01:57:49.042Z,3.70
2022-09-28T02:00:19.738Z,3.40
2022-09-28T02:02:56.258Z,3.50
2022-09-28T02:05:58.906Z,3.70
2022-09-28T02:08:31.755Z,3.80
2022-09-28T02:11:17.309Z,5.20
2022-09-28T02:14:06.856Z,5.80
2022-09-28T02:16:44.049Z,3.60
2022-09-28T02:19:23.630Z,4.20
2022-09-28T02:22:03.092Z,3.60
2022-09-28T02:24:53.805Z,3.90
2022-09-28T02:27:36.592Z,4.40
2022-09-28T02:30:06.540Z,4.20
2022-09-28T02:32:40.421Z,3.80
2022-09-28T02:35:11.432Z,3.70
2022-09-28T02:37:40.594Z,4.90
2022-09-28T02:40:13.933Z,4.00
2022-09-28T02:43:13.051Z,3.70
2022-09-28T02:46:13.593Z,4.20
2022-09-28T02:49:21.382Z,3.90
2022-09-28T02:52:04.495Z,4.60
2022-09-28T02:55:01.803Z,3.90
2022-09-28T02:57:50.903Z,3.60
2022-09-28T03:00:22.919Z,4.30
2022-09-28T03:03:09.419Z,4.10
2022-09-28T03:05:50.934Z,4.20
2022-09-28T03:08:32.763Z,4.30
2022-09-28T03:11:16.770Z,4.50
2022-09-28T03:13:49.545Z,4.70
2022-09-28T03:16:20.053Z,4.80
2022-09-28T03:18:49.496Z,7.00
2022-09-28T03:21:17.563Z,4.70
2022-09-28T03:23:47.465Z,5.10
2022-09-28T03:26:18.081Z,4.70
2022-09-28T03:28:46.102Z,4.30
2022-09-28T03:31:17.473Z,4.80
2022-09-28T03:33:45.411Z,4.70
2022-09-28T03:36:15.256Z,5.50
2022-09-28T03:38:43.338Z,5.30
2022-09-28T03:41:11.851Z,5.40
2022-09-28T03:43:43.022Z,5.40
2022-09-28T03:46:11.503Z,5.60
2022-09-28T03:48:43.529Z,5.30
2022-09-28T03:51:13.012Z,5.60
2022-09-28T03:53:41.272Z,5.20
2022-09-28T03:56:15.370Z,5.20
2022-09-28T03:58:43.351Z,4.90
2022-09-28T04:01:17.664Z,5.20
2022-09-28T04:03:47.475Z,5.20
2022-09-28T04:06:15.523Z,5.90
2022-09-28T04:08:43.702Z,5.50
2022-09-28T04:11:12.182Z,5.30
2022-09-28T04:13:40.124Z,5.00
2022-09-28T04:18:42.696Z,5.10
2022-09-28T04:21:29.602Z,5.10
2022-09-28T04:24:04.599Z,5.00
2022-09-28T04:26:32.551Z,5.00
2022-09-28T04:29:16.062Z,5.20
2022-09-28T04:31:56.208Z,5.50
2022-09-28T04:34:39.590Z,5.70
2022-09-28T04:37:10.239Z,5.80
2022-09-28T04:39:42.300Z,5.90
2022-09-28T04:42:13.446Z,5.30
2022-09-28T04:44:41.248Z,5.30
2022-09-28T04:47:10.590Z,4.90
2022-09-28T04:49:54.052Z,5.80
2022-09-28T04:52:27.661Z,5.30
2022-09-28T04:54:55.764Z,5.50
2022-09-28T04:57:25.900Z,7.00
2022-09-28T04:59:58.778Z,6.50
2022-09-28T05:02:31.014Z,5.80
2022-09-28T05:05:05.199Z,5.60
2022-09-28T05:07:52.321Z,5.30
2022-09-28T05:10:20.352Z,6.40
2022-09-28T05:12:48.433Z,6.20
2022-09-28T05:15:17.537Z,6.00
2022-09-28T05:17:45.435Z,5.70
2022-09-28T05:20:22.074Z,5.50
2022-09-28T05:22:49.983Z,5.70
2022-09-28T05:25:18.815Z,6.00
2022-09-28T05:28:07.284Z,4.80
2022-09-28T05:30:42.319Z,4.20
2022-09-28T05:33:42.594Z,5.00
2022-09-28T05:36:12.842Z,4.20
2022-09-28T05:38:40.807Z,5.20
2022-09-28T05:41:08.899Z,5.30
2022-09-28T05:43:36.997Z,5.20
2022-09-28T05:46:06.928Z,5.80
2022-09-28T05:48:41.802Z,5.40
2022-09-28T05:51:10.506Z,5.30
2022-09-28T05:53:38.525Z,5.10
2022-09-28T05:56:06.664Z,4.70
2022-09-28T05:58:36.758Z,4.40
2022-09-28T06:01:04.871Z,5.10
2022-09-28T06:03:32.862Z,5.00
2022-09-28T06:06:02.741Z,5.20
2022-09-28T06:11:19.629Z,5.40
2022-09-28T06:13:48.331Z,4.90
2022-09-28T06:16:16.886Z,4.90
2022-09-28T06:18:44.946Z,4.10
2022-09-28T06:21:32.756Z,4.00
2022-09-28T06:24:00.703Z,3.80
2022-09-28T06:26:28.828Z,4.20
2022-09-28T06:28:56.835Z,4.70
2022-09-28T06:31:25.261Z,4.30
2022-09-28T06:33:55.286Z,4.70
2022-09-28T06:36:24.191Z,4.50
2022-09-28T06:38:52.147Z,4.10
2022-09-28T06:41:20.132Z,4.20
2022-09-28T06:43:48.916Z,4.40
2022-09-28T06:46:58.530Z,3.90
2022-09-28T06:49:51.388Z,3.80
2022-09-28T06:52:28.267Z,4.30
2022-09-28T06:55:06.498Z,4.10
2022-09-28T06:57:45.228Z,3.80
2022-09-28T07:00:14.134Z,3.20
2022-09-28T07:02:44.865Z,4.00
2022-09-28T07:05:56.274Z,3.30
2022-09-28T07:09:24.216Z,2.40
2022-09-28T07:12:21.939Z,3.00
2022-09-28T07:15:00.874Z,3.70
2022-09-28T07:17:29.860Z,3.80
2022-09-28T07:20:10.738Z,3.60
2022-09-28T07:22:43.831Z,2.90
2022-09-28T07:25:18.194Z,2.90
2022-09-28T07:27:51.024Z,3.10
2022-09-28T07:30:45.299Z,2.90
2022-09-28T07:33:17.971Z,3.20
2022-09-28T07:35:55.671Z,3.30
2022-09-28T07:38:29.259Z,2.90
2022-09-28T07:41:14.359Z,3.20
2022-09-28T07:43:49.954Z,2.90
2022-09-28T07:46:18.037Z,3.40
2022-09-28T07:48:56.147Z,3.00
2022-09-28T07:51:59.180Z,3.20
2022-09-28T07:54:31.318Z,3.30
2022-09-28T07:56:59.132Z,3.90
2022-09-28T07:59:46.117Z,3.40
2022-09-28T08:02:34.188Z,3.20
2022-09-28T08:05:02.915Z,3.00
2022-09-28T08:07:32.611Z,3.40
2022-09-28T08:10:05.643Z,3.00
2022-09-28T08:13:04.746Z,4.70
2022-09-28T08:15:38.336Z,3.80
2022-09-28T08:18:25.320Z,3.90
2022-09-28T08:21:12.442Z,3.70
2022-09-28T08:23:40.428Z,3.20
2022-09-28T08:26:12.090Z,3.20
2022-09-28T08:28:45.220Z,3.80
2022-09-28T08:31:32.300Z,2.90
2022-09-28T08:34:11.428Z,2.70
2022-09-28T08:37:11.754Z,2.80
2022-09-28T08:39:58.256Z,2.70
2022-09-28T08:42:42.426Z,4.40
2022-09-28T08:45:19.684Z,4.60
2022-09-28T08:48:40.408Z,3.20
2022-09-28T08:51:34.925Z,2.80
2022-09-28T08:54:26.127Z,2.50
2022-09-28T08:57:11.329Z,3.10
2022-09-28T08:59:53.581Z,2.40
2022-09-28T09:02:36.456Z,2.70
2022-09-28T09:06:00.686Z,2.30
2022-09-28T09:09:01.107Z,2.30
2022-09-28T09:12:03.592Z,2.90
2022-09-28T09:14:57.018Z,2.10
2022-09-28T09:17:46.833Z,2.20
2022-09-28T09:20:36.717Z,2.50
2022-09-28T09:24:03.674Z,1.90
2022-09-28T09:26:39.695Z,1.90
2022-09-28T09:29:18.479Z,2.00
2022-09-28T09:32:08.276Z,1.60
2022-09-28T09:34:55.445Z,1.80
2022-09-28T09:38:17.514Z,2.20
2022-09-28T09:41:42.933Z,1.90
2022-09-28T09:44:48.859Z,1.70
2022-09-28T09:47:46.724Z,2.40
2022-09-28T09:50:53.549Z,1.90
2022-09-28T09:53:26.685Z,2.00
2022-09-28T09:56:00.093Z,2.10
2022-09-28T09:58:48.950Z,2.00
2022-09-28T10:01:31.455Z,2.00
2022-09-28T10:04:29.233Z,2.00
2022-09-28T10:07:04.565Z,2.00
2022-09-28T10:09:39.713Z,1.80
2022-09-28T10:12:26.475Z,1.50
2022-09-28T10:14:56.116Z,1.50
2022-09-28T10:17:27.611Z,1.40
2022-09-28T10:20:38.037Z,1.30
2022-09-28T10:23:37.461Z,1.30
2022-09-28T10:26:37.536Z,1.40
2022-09-28T10:29:15.891Z,1.60
2022-09-28T10:31:48.985Z,1.70
2022-09-28T10:34:29.689Z,1.70
2022-09-28T10:37:03.910Z,1.10
2022-09-28T10:39:55.775Z,1.60
2022-09-28T10:42:30.745Z,1.90
2022-09-28T10:45:05.391Z,1.80
2022-09-28T10:47:36.983Z,1.60
2022-09-28T10:50:27.176Z,1.40
2022-09-28T10:53:20.747Z,1.40
2022-09-28T10:56:21.279Z,0.90
2022-09-28T10:58:52.313Z,3.00
2022-09-28T11:01:33.121Z,2.00
2022-09-28T11:04:04.734Z,2.20
2022-09-28T11:06:37.446Z,1.00
2022-09-28T11:09:29.787Z,0.80
2022-09-28T11:12:06.027Z,1.20
2022-09-28T11:14:42.436Z,1.20
2022-09-28T11:17:27.459Z,1.10
2022-09-28T11:19:57.735Z,1.00
2022-09-28T11:22:29.104Z,1.40
2022-09-28T11:25:19.008Z,1.20
2022-09-28T11:27:50.762Z,1.20
2022-09-28T11:30:42.758Z,1.10
2022-09-28T11:33:40.405Z,1.30
2022-09-28T11:37:07.159Z,1.20
2022-09-28T11:39:39.601Z,2.20
2022-09-28T11:42:18.703Z,1.60
2022-09-28T11:44:49.041Z,1.20
2022-09-28T11:47:18.350Z,2.30
2022-09-28T11:50:01.557Z,1.10
2022-09-28T11:52:52.066Z,1.10
2022-09-28T11:55:40.203Z,1.80
2022-09-28T11:58:41.240Z,1.70
2022-09-28T12:01:15.433Z,1.00
2022-09-28T12:04:20.703Z,1.40
2022-09-28T12:07:00.129Z,1.10
2022-09-28T12:09:38.186Z,1.80
2022-09-28T12:12:25.629Z,1.40
2022-09-28T12:15:01.726Z,1.10
2022-09-28T12:17:43.412Z,1.00
2022-09-28T12:20:23.978Z,2.10
2022-09-28T12:23:16.695Z,1.30
2022-09-28T12:25:51.784Z,2.00
2022-09-28T12:28:39.977Z,1.30
2022-09-28T12:31:45.850Z,0.90
2022-09-28T12:34:13.924Z,1.10
2022-09-28T12:36:47.537Z,1.30
2022-09-28T12:39:47.004Z,1.40
2022-09-28T12:42:44.411Z,2.20
2022-09-28T12:45:38.910Z,1.70
2022-09-28T12:48:27.016Z,1.70
2022-09-28T12:51:31.350Z,1.70
2022-09-28T12:54:22.997Z,1.10
2022-09-28T12:57:09.523Z,1.60
2022-09-28T12:59:44.462Z,1.10
2022-09-28T13:02:46.227Z,1.30
2022-09-28T13:05:21.643Z,1.10
2022-09-28T13:08:02.556Z,1.20
2022-09-28T13:10:40.534Z,1.10
2022-09-28T13:13:42.453Z,1.20
2022-09-28T13:16:27.188Z,1.20
2022-09-28T13:19:07.148Z,1.70
2022-09-28T13:22:08.755Z,1.20
2022-09-28T13:24:44.361Z,1.10
2022-09-28T13:27:17.389Z,1.10
2022-09-28T13:29:49.236Z,1.30
2022-09-28T13:32:18.559Z,1.20
2022-09-28T13:34:49.012Z,1.10
2022-09-28T13:37:25.954Z,1.10
2022-09-28T13:40:05.956Z,1.10
2022-09-28T13:42:46.270Z,1.20
2022-09-28T13:45:20.152Z,0.90
2022-09-28T13:48:14.128Z,1.20
2022-09-28T13:51:08.777Z,1.30
2022-09-28T13:53:51.936Z,1.10
2022-09-28T13:56:26.631Z,2.20
2022-09-28T13:59:18.998Z,1.80
2022-09-28T14:02:20.071Z,1.70
2022-09-28T14:04:53.888Z,1.40
2022-09-28T14:07:38.572Z,1.10
2022-09-28T14:10:53.373Z,1.20
2022-09-28T14:13:43.158Z,1.30
2022-09-28T14:16:31.221Z,1.20
2022-09-28T14:19:14.241Z,1.30
2022-09-28T14:21:54.626Z,1.60
2022-09-28T14:24:28.443Z,1.70
2022-09-28T14:26:56.247Z,1.50
2022-09-28T14:29:28.770Z,1.30
2022-09-28T14:31:59.055Z,1.30
2022-09-28T14:34:34.158Z,1.70
2022-09-28T14:37:24.577Z,1.90
2022-09-28T14:40:11.104Z,1.80
2022-09-28T14:42:40.326Z,2.00
2022-09-28T14:45:08.342Z,1.90
2022-09-28T14:48:20.529Z,2.40
2022-09-28T14:50:50.201Z,1.60
2022-09-28T14:53:22.223Z,1.40
2022-09-28T14:55:55.669Z,2.70
2022-09-28T14:58:27.557Z,2.50
2022-09-28T15:01:03.041Z,2.90
2022-09-28T15:03:34.566Z,2.40
2022-09-28T15:06:02.378Z,1.90
2022-09-28T15:08:38.605Z,1.70
2022-09-28T15:11:12.461Z,2.00
2022-09-28T15:13:40.968Z,2.10
2022-09-28T15:16:13.363Z,1.70
2022-09-28T15:18:59.254Z,2.30
2022-09-28T15:21:56.797Z,1.70
2022-09-28T15:24:35.001Z,1.90
2022-09-28T15:27:23.692Z,2.00
2022-09-28T15:30:26.703Z,1.90
2022-09-28T15:32:57.076Z,1.80
2022-09-28T15:35:27.184Z,2.00
2022-09-28T15:37:55.736Z,1.50
2022-09-28T15:40:31.848Z,2.00
2022-09-28T15:43:00.663Z,2.00
2022-09-28T15:45:38.585Z,1.90
2022-09-28T15:48:31.308Z,2.00
2022-09-28T15:51:11.067Z,3.10
2022-09-28T15:54:03.014Z,2.50
2022-09-28T15:56:32.263Z,2.30
2022-09-28T15:59:15.110Z,2.80
2022-09-28T16:01:44.827Z,2.30
2022-09-28T16:04:51.781Z,3.30
2022-09-28T16:07:21.214Z,3.00
2022-09-28T16:10:21.268Z,3.00
2022-09-28T16:12:54.343Z,3.70
2022-09-28T16:15:34.513Z,4.30
2022-09-28T16:18:06.808Z,4.30
2022-09-28T16:20:37.826Z,4.70
2022-09-28T16:23:26.017Z,4.40
2022-09-28T16:26:05.428Z,4.20
2022-09-28T16:28:35.634Z,3.90
2022-09-28T16:31:12.669Z,4.00
2022-09-28T16:33:40.612Z,4.80
2022-09-28T16:36:14.370Z,4.60
2022-09-28T16:38:46.257Z,4.80
2022-09-28T16:41:20.640Z,5.20
2022-09-28T16:43:49.073Z,4.60
2022-09-28T16:46:17.856Z,5.70
2022-09-28T16:48:51.058Z,5.40
2022-09-28T16:51:22.685Z,6.10
2022-09-28T16:54:09.380Z,5.80
2022-09-28T16:56:37.714Z,6.10
2022-09-28T16:59:05.921Z,5.80
2022-09-28T17:01:34.379Z,5.60
2022-09-28T17:04:02.518Z,5.70
2022-09-28T17:06:31.352Z,5.30
2022-09-28T17:08:59.248Z,5.30
2022-09-28T17:11:27.834Z,5.10
2022-09-28T17:13:59.098Z,5.40
2022-09-28T17:19:25.042Z,5.80
2022-09-28T17:21:53.517Z,6.40
2022-09-28T17:24:21.790Z,7.30
2022-09-28T17:26:52.052Z,8.30
2022-09-28T17:29:19.909Z,8.30
2022-09-28T17:31:48.321Z,8.90
2022-09-28T17:34:16.792Z,9.50
2022-09-28T17:36:45.412Z,9.50
2022-09-28T17:39:15.998Z,8.90
2022-09-28T17:44:16.399Z,8.80
2022-09-28T17:46:48.754Z,10.00
2022-09-28T17:49:17.411Z,11.80
2022-09-28T17:51:45.580Z,13.60
2022-09-28T17:54:13.767Z,13.40
2022-09-28T17:56:42.723Z,13.80
2022-09-28T17:59:19.219Z,15.90
2022-09-28T18:01:48.360Z,15.70
2022-09-28T18:04:39.656Z,15.10
2022-09-28T18:07:05.584Z,13.70
2022-09-28T18:09:33.728Z,13.90
2022-09-28T18:12:05.198Z,12.90
2022-09-28T18:14:34.001Z,13.50
2022-09-28T18:17:02.023Z,12.90
2022-09-28T18:19:32.314Z,12.80
2022-09-28T18:24:29.973Z,28.60
2022-09-28T18:26:58.003Z,31.80
2022-09-28T18:29:28.025Z,28.00
2022-09-28T18:31:57.930Z,26.20
2022-09-28T18:34:27.084Z,20.20
2022-09-28T18:36:58.368Z,34.00
2022-09-28T18:39:31.030Z,25.30
2022-09-28T18:41:58.959Z,20.30
2022-09-28T18:44:26.970Z,16.20
2022-09-28T18:46:54.932Z,16.10
2022-09-28T18:49:23.583Z,17.00
2022-09-28T18:51:51.497Z,16.70
2022-09-28T18:54:20.099Z,16.00
2022-09-28T18:56:48.205Z,17.40
2022-09-28T18:59:16.108Z,15.30
2022-09-28T19:01:44.054Z,15.10
2022-09-28T19:04:13.749Z,14.40
2022-09-28T19:06:42.923Z,15.70
2022-09-28T19:09:11.170Z,14.50
2022-09-28T19:11:39.082Z,12.50
2022-09-28T19:14:07.153Z,11.10
2022-09-28T19:16:34.913Z,10.60
2022-09-28T19:19:03.500Z,12.10
2022-09-28T19:21:31.694Z,11.80
2022-09-28T19:24:04.211Z,11.60
2022-09-28T19:26:32.983Z,9.60
2022-09-28T19:29:02.986Z,9.60
2022-09-28T19:31:32.147Z,9.80
2022-09-28T19:34:00.620Z,9.60
2022-09-28T19:36:29.403Z,10.50
2022-09-28T19:39:02.202Z,9.70
2022-09-28T19:41:44.386Z,9.30
2022-09-28T19:44:24.924Z,9.70
2022-09-28T19:47:06.955Z,9.90
2022-09-28T19:49:38.941Z,8.60
2022-09-28T19:52:16.109Z,8.20
2022-09-28T19:54:45.572Z,7.70
2022-09-28T19:57:16.060Z,6.90
2022-09-28T19:59:44.398Z,6.60
2022-09-28T20:02:13.329Z,6.30
2022-09-28T20:04:41.297Z,7.80
2022-09-28T20:07:09.309Z,7.70
2022-09-28T20:09:37.187Z,8.10
2022-09-28T20:12:05.122Z,9.00
2022-09-28T20:14:36.531Z,10.90
2022-09-28T20:17:05.931Z,8.90
2022-09-28T20:19:35.135Z,8.20
2022-09-28T20:22:03.711Z,7.30
2022-09-28T20:24:33.004Z,7.10
2022-09-28T20:27:01.732Z,6.10
2022-09-28T20:29:33.835Z,5.90
2022-09-28T20:32:04.263Z,6.90
2022-09-28T20:34:34.114Z,7.50
2022-09-28T20:37:02.073Z,7.50
2022-09-28T20:39:30.137Z,8.70
2022-09-28T20:41:58.115Z,8.90
2022-09-28T20:44:25.967Z,9.60
2022-09-28T20:46:53.787Z,7.70
2022-09-28T20:49:21.851Z,6.90
2022-09-28T20:51:49.666Z,7.00
2022-09-28T20:54:17.621Z,6.80
2022-09-28T20:56:48.114Z,6.30
2022-09-28T20:59:16.505Z,6.30
2022-09-28T21:01:44.625Z,5.90
2022-09-28T21:04:12.987Z,6.50
2022-09-28T21:06:42.211Z,6.50
2022-09-28T21:09:11.638Z,6.80
2022-09-28T21:11:40.353Z,6.80
2022-09-28T21:14:10.519Z,6.60
2022-09-28T21:16:39.174Z,6.90
2022-09-28T21:19:07.160Z,6.50
2022-09-28T21:21:35.325Z,6.40
2022-09-28T21:24:03.562Z,6.80
2022-09-28T21:26:33.116Z,6.50
2022-09-28T21:29:06.701Z,6.40
2022-09-28T21:31:40.356Z,6.30
2022-09-28T21:34:19.414Z,6.50
2022-09-28T21:36:51.472Z,6.10
2022-09-28T21:39:20.294Z,6.20
2022-09-28T21:41:48.335Z,5.40
2022-09-28T21:44:16.258Z,6.20
2022-09-28T21:46:44.197Z,5.70
2022-09-28T21:49:12.758Z,6.60
2022-09-28T21:51:40.943Z,5.90
2022-09-28T21:54:08.864Z,6.20
2022-09-28T21:56:36.755Z,6.10
2022-09-28T21:59:04.607Z,5.70
2022-09-28T22:01:32.583Z,5.70
2022-09-28T22:04:01.530Z,5.50
2022-09-28T22:06:29.796Z,5.60
2022-09-28T22:08:58.268Z,5.80
2022-09-28T22:11:28.420Z,6.00
2022-09-28T22:13:59.424Z,5.60
2022-09-28T22:16:30.525Z,5.40
2022-09-28T22:18:59.981Z,4.90
2022-09-28T22:21:31.873Z,5.00
2022-09-28T22:24:05.195Z,4.90
2022-09-28T22:26:35.611Z,4.70
2022-09-28T22:29:07.007Z,4.60
2022-09-28T22:31:40.395Z,5.30
2022-09-28T22:34:09.647Z,5.10
2022-09-28T22:36:37.573Z,5.00
2022-09-28T22:39:05.644Z,5.10
2022-09-28T22:41:33.871Z,5.40
2022-09-28T22:44:01.931Z,4.60
2022-09-28T22:46:32.206Z,4.90
2022-09-28T22:49:00.764Z,4.80
2022-09-28T22:51:29.856Z,4.50
2022-09-28T22:53:58.195Z,5.10
2022-09-28T22:56:26.337Z,5.00
2022-09-28T22:58:54.507Z,4.90
2022-09-28T23:01:27.968Z,5.70
2022-09-28T23:03:57.104Z,5.90
2022-09-28T23:06:27.832Z,4.80
2022-09-28T23:08:56.112Z,4.90
2022-09-28T23:11:24.000Z,5.00
2022-09-28T23:13:57.561Z,4.90
2022-09-28T23:16:26.828Z,4.40
2022-09-28T23:18:56.044Z,4.70
2022-09-28T23:21:26.225Z,4.70
2022-09-28T23:23:57.083Z,4.50
2022-09-28T23:28:55.630Z,4.60
2022-09-28T23:31:25.887Z,4.30
2022-09-28T23:34:02.026Z,3.80
2022-09-28T23:36:30.166Z,4.00
2022-09-28T23:38:58.195Z,3.80
2022-09-28T23:41:25.972Z,4.40
2022-09-28T23:43:53.850Z,4.10
2022-09-28T23:46:21.738Z,4.30
2022-09-28T23:48:50.536Z,4.30
2022-09-28T23:51:19.017Z,4.80
2022-09-28T23:53:46.832Z,4.80
2022-09-28T23:56:14.721Z,4.90
2022-09-28T23:58:42.886Z,4.90
